sensor_id;sensor_type;location;lat;lon;timestamp;P1;durP1;ratioP1;P2;durP2;ratioP2
72379;SDS011;60354;47.798;12.472;2023-02-28T00:00:33;10.52;;;5.38;;
72379;SDS011;60354;47.798;12.472;2023-02-28T00:02:59;20.95;;;8.50;;
72379;SDS011;60354;47.798;12.472;2023-02-28T00:05:25;14.15;;;6.80;;
72379;SDS011;60354;47.798;12.472;2023-02-28T00:07:52;17.67;;;7.63;;
72379;SDS011;60354;47.798;12.472;2023-02-28T00:10:19;16.90;;;7.10;;
72379;SDS011;60354;47.798;12.472;2023-02-28T00:12:48;12.20;;;5.95;;
72379;SDS011;60354;47.798;12.472;2023-02-28T00:15:15;13.05;;;6.50;;
72379;SDS011;60354;47.798;12.472;2023-02-28T00:17:41;14.35;;;6.25;;
72379;SDS011;60354;47.798;12.472;2023-02-28T00:20:06;14.63;;;7.20;;
72379;SDS011;60354;47.798;12.472;2023-02-28T00:22:33;11.90;;;5.80;;
72379;SDS011;60354;47.798;12.472;2023-02-28T00:24:59;11.80;;;5.78;;
72379;SDS011;60354;47.798;12.472;2023-02-28T00:27:25;12.77;;;5.80;;
72379;SDS011;60354;47.798;12.472;2023-02-28T00:29:50;12.88;;;6.35;;
72379;SDS011;60354;47.798;12.472;2023-02-28T00:32:16;9.13;;;4.93;;
72379;SDS011;60354;47.798;12.472;2023-02-28T00:34:43;9.10;;;4.93;;
72379;SDS011;60354;47.798;12.472;2023-02-28T00:37:09;9.88;;;4.38;;
72379;SDS011;60354;47.798;12.472;2023-02-28T00:39:37;9.25;;;4.95;;
72379;SDS011;60354;47.798;12.472;2023-02-28T00:42:03;10.13;;;5.65;;
72379;SDS011;60354;47.798;12.472;2023-02-28T00:44:29;11.82;;;6.25;;
72379;SDS011;60354;47.798;12.472;2023-02-28T00:46:55;11.52;;;5.97;;
72379;SDS011;60354;47.798;12.472;2023-02-28T00:49:23;9.75;;;5.63;;
72379;SDS011;60354;47.798;12.472;2023-02-28T00:51:49;9.35;;;5.35;;
72379;SDS011;60354;47.798;12.472;2023-02-28T00:54:16;9.68;;;5.30;;
72379;SDS011;60354;47.798;12.472;2023-02-28T00:56:41;10.80;;;5.80;;
72379;SDS011;60354;47.798;12.472;2023-02-28T00:59:07;10.90;;;5.32;;
72379;SDS011;60354;47.798;12.472;2023-02-28T01:01:32;13.45;;;7.03;;
72379;SDS011;60354;47.798;12.472;2023-02-28T01:03:58;14.00;;;7.85;;
72379;SDS011;60354;47.798;12.472;2023-02-28T01:06:23;18.52;;;8.50;;
72379;SDS011;60354;47.798;12.472;2023-02-28T01:08:49;14.55;;;6.93;;
72379;SDS011;60354;47.798;12.472;2023-02-28T01:11:15;13.02;;;7.10;;
72379;SDS011;60354;47.798;12.472;2023-02-28T01:13:42;13.10;;;6.80;;
72379;SDS011;60354;47.798;12.472;2023-02-28T01:16:11;12.73;;;7.10;;
72379;SDS011;60354;47.798;12.472;2023-02-28T01:18:37;13.70;;;7.53;;
72379;SDS011;60354;47.798;12.472;2023-02-28T01:21:07;13.10;;;7.03;;
72379;SDS011;60354;47.798;12.472;2023-02-28T01:23:34;14.43;;;7.57;;
72379;SDS011;60354;47.798;12.472;2023-02-28T01:26:08;14.45;;;7.03;;
72379;SDS011;60354;47.798;12.472;2023-02-28T01:28:42;12.10;;;6.50;;
72379;SDS011;60354;47.798;12.472;2023-02-28T01:31:08;14.50;;;7.43;;
72379;SDS011;60354;47.798;12.472;2023-02-28T01:33:36;14.32;;;7.68;;
72379;SDS011;60354;47.798;12.472;2023-02-28T01:36:04;11.75;;;7.07;;
72379;SDS011;60354;47.798;12.472;2023-02-28T01:38:30;15.43;;;7.55;;
72379;SDS011;60354;47.798;12.472;2023-02-28T01:40:56;12.95;;;6.40;;
72379;SDS011;60354;47.798;12.472;2023-02-28T01:43:29;8.57;;;5.13;;
72379;SDS011;60354;47.798;12.472;2023-02-28T01:45:57;11.23;;;5.00;;
72379;SDS011;60354;47.798;12.472;2023-02-28T01:48:27;9.77;;;5.32;;
72379;SDS011;60354;47.798;12.472;2023-02-28T01:51:01;11.45;;;6.13;;
72379;SDS011;60354;47.798;12.472;2023-02-28T01:53:37;7.80;;;4.25;;
72379;SDS011;60354;47.798;12.472;2023-02-28T01:56:15;9.75;;;4.70;;
72379;SDS011;60354;47.798;12.472;2023-02-28T02:01:14;9.52;;;4.38;;
72379;SDS011;60354;47.798;12.472;2023-02-28T02:03:49;8.88;;;4.65;;
72379;SDS011;60354;47.798;12.472;2023-02-28T02:06:30;8.60;;;4.95;;
72379;SDS011;60354;47.798;12.472;2023-02-28T02:09:00;9.55;;;4.70;;
72379;SDS011;60354;47.798;12.472;2023-02-28T02:11:26;10.85;;;4.55;;
72379;SDS011;60354;47.798;12.472;2023-02-28T02:27:42;11.23;;;5.80;;
72379;SDS011;60354;47.798;12.472;2023-02-28T02:33:30;9.55;;;4.45;;
72379;SDS011;60354;47.798;12.472;2023-02-28T02:36:25;10.52;;;4.88;;
72379;SDS011;60354;47.798;12.472;2023-02-28T02:39:16;8.90;;;5.15;;
72379;SDS011;60354;47.798;12.472;2023-02-28T02:41:50;8.15;;;4.30;;
72379;SDS011;60354;47.798;12.472;2023-02-28T02:44:20;9.20;;;4.72;;
72379;SDS011;60354;47.798;12.472;2023-02-28T02:47:03;8.75;;;4.68;;
72379;SDS011;60354;47.798;12.472;2023-02-28T02:49:35;8.65;;;5.07;;
72379;SDS011;60354;47.798;12.472;2023-02-28T02:52:04;9.85;;;5.55;;
72379;SDS011;60354;47.798;12.472;2023-02-28T02:54:33;11.00;;;5.40;;
72379;SDS011;60354;47.798;12.472;2023-02-28T02:57:03;9.27;;;5.35;;
72379;SDS011;60354;47.798;12.472;2023-02-28T02:59:33;10.45;;;5.80;;
72379;SDS011;60354;47.798;12.472;2023-02-28T03:02:02;10.00;;;5.35;;
72379;SDS011;60354;47.798;12.472;2023-02-28T03:04:33;10.50;;;5.13;;
72379;SDS011;60354;47.798;12.472;2023-02-28T03:07:04;8.45;;;4.97;;
72379;SDS011;60354;47.798;12.472;2023-02-28T03:09:32;11.68;;;5.07;;
72379;SDS011;60354;47.798;12.472;2023-02-28T03:11:58;8.38;;;4.75;;
72379;SDS011;60354;47.798;12.472;2023-02-28T03:14:27;8.52;;;4.75;;
72379;SDS011;60354;47.798;12.472;2023-02-28T03:33:16;12.38;;;5.32;;
72379;SDS011;60354;47.798;12.472;2023-02-28T03:36:09;11.23;;;5.72;;
72379;SDS011;60354;47.798;12.472;2023-02-28T03:38:40;7.75;;;4.68;;
72379;SDS011;60354;47.798;12.472;2023-02-28T03:43:42;6.35;;;3.70;;
72379;SDS011;60354;47.798;12.472;2023-02-28T03:46:14;7.07;;;3.80;;
72379;SDS011;60354;47.798;12.472;2023-02-28T03:48:49;5.00;;;3.38;;
72379;SDS011;60354;47.798;12.472;2023-02-28T03:51:21;7.15;;;3.60;;
72379;SDS011;60354;47.798;12.472;2023-02-28T03:56:54;7.25;;;4.00;;
72379;SDS011;60354;47.798;12.472;2023-02-28T03:59:27;7.00;;;4.03;;
72379;SDS011;60354;47.798;12.472;2023-02-28T04:01:55;8.30;;;5.05;;
72379;SDS011;60354;47.798;12.472;2023-02-28T04:04:23;10.18;;;4.75;;
72379;SDS011;60354;47.798;12.472;2023-02-28T04:06:52;8.68;;;4.60;;
72379;SDS011;60354;47.798;12.472;2023-02-28T04:09:25;10.85;;;4.80;;
72379;SDS011;60354;47.798;12.472;2023-02-28T04:11:51;12.43;;;4.97;;
72379;SDS011;60354;47.798;12.472;2023-02-28T04:14:18;7.35;;;4.07;;
72379;SDS011;60354;47.798;12.472;2023-02-28T04:16:43;8.20;;;3.95;;
72379;SDS011;60354;47.798;12.472;2023-02-28T04:19:10;9.02;;;4.07;;
72379;SDS011;60354;47.798;12.472;2023-02-28T04:24:13;6.80;;;3.70;;
72379;SDS011;60354;47.798;12.472;2023-02-28T04:26:45;5.88;;;3.75;;
72379;SDS011;60354;47.798;12.472;2023-02-28T04:29:13;5.63;;;3.38;;
72379;SDS011;60354;47.798;12.472;2023-02-28T04:31:42;7.47;;;3.75;;
72379;SDS011;60354;47.798;12.472;2023-02-28T04:34:08;6.88;;;3.50;;
72379;SDS011;60354;47.798;12.472;2023-02-28T04:36:34;7.13;;;3.67;;
72379;SDS011;60354;47.798;12.472;2023-02-28T04:38:59;7.65;;;4.05;;
72379;SDS011;60354;47.798;12.472;2023-02-28T04:41:25;6.55;;;3.78;;
72379;SDS011;60354;47.798;12.472;2023-02-28T04:43:51;6.38;;;3.55;;
72379;SDS011;60354;47.798;12.472;2023-02-28T04:46:18;7.53;;;4.32;;
72379;SDS011;60354;47.798;12.472;2023-02-28T04:48:44;9.18;;;4.28;;
72379;SDS011;60354;47.798;12.472;2023-02-28T04:51:11;6.40;;;3.80;;
72379;SDS011;60354;47.798;12.472;2023-02-28T04:53:39;8.43;;;3.80;;
72379;SDS011;60354;47.798;12.472;2023-02-28T04:56:06;6.05;;;3.60;;
72379;SDS011;60354;47.798;12.472;2023-02-28T04:58:32;6.65;;;3.60;;
72379;SDS011;60354;47.798;12.472;2023-02-28T05:01:02;5.68;;;3.60;;
72379;SDS011;60354;47.798;12.472;2023-02-28T05:03:40;6.72;;;3.92;;
72379;SDS011;60354;47.798;12.472;2023-02-28T05:06:07;8.15;;;4.82;;
72379;SDS011;60354;47.798;12.472;2023-02-28T05:08:33;10.00;;;4.57;;
72379;SDS011;60354;47.798;12.472;2023-02-28T05:10:59;7.70;;;4.20;;
72379;SDS011;60354;47.798;12.472;2023-02-28T05:13:26;8.02;;;4.18;;
72379;SDS011;60354;47.798;12.472;2023-02-28T05:15:51;9.15;;;3.88;;
72379;SDS011;60354;47.798;12.472;2023-02-28T05:18:17;7.97;;;4.03;;
72379;SDS011;60354;47.798;12.472;2023-02-28T05:20:43;6.22;;;3.60;;
72379;SDS011;60354;47.798;12.472;2023-02-28T05:23:10;5.10;;;3.17;;
72379;SDS011;60354;47.798;12.472;2023-02-28T05:25:38;6.93;;;3.72;;
72379;SDS011;60354;47.798;12.472;2023-02-28T05:28:03;5.55;;;3.20;;
72379;SDS011;60354;47.798;12.472;2023-02-28T05:30:29;7.55;;;3.40;;
72379;SDS011;60354;47.798;12.472;2023-02-28T05:32:56;7.82;;;3.28;;
72379;SDS011;60354;47.798;12.472;2023-02-28T05:35:22;7.47;;;3.75;;
72379;SDS011;60354;47.798;12.472;2023-02-28T05:37:48;6.07;;;3.70;;
72379;SDS011;60354;47.798;12.472;2023-02-28T05:40:14;13.38;;;6.00;;
72379;SDS011;60354;47.798;12.472;2023-02-28T05:42:40;8.27;;;4.10;;
72379;SDS011;60354;47.798;12.472;2023-02-28T05:45:06;9.20;;;4.25;;
72379;SDS011;60354;47.798;12.472;2023-02-28T05:47:33;7.07;;;4.18;;
72379;SDS011;60354;47.798;12.472;2023-02-28T05:49:59;7.97;;;4.57;;
72379;SDS011;60354;47.798;12.472;2023-02-28T05:52:26;8.05;;;4.32;;
72379;SDS011;60354;47.798;12.472;2023-02-28T05:54:52;10.05;;;4.28;;
72379;SDS011;60354;47.798;12.472;2023-02-28T05:57:17;24.48;;;8.70;;
72379;SDS011;60354;47.798;12.472;2023-02-28T05:59:43;21.30;;;8.75;;
72379;SDS011;60354;47.798;12.472;2023-02-28T06:02:12;18.55;;;7.55;;
72379;SDS011;60354;47.798;12.472;2023-02-28T06:04:39;13.05;;;5.95;;
72379;SDS011;60354;47.798;12.472;2023-02-28T06:07:05;13.55;;;6.32;;
72379;SDS011;60354;47.798;12.472;2023-02-28T06:09:31;11.38;;;4.95;;
72379;SDS011;60354;47.798;12.472;2023-02-28T06:11:58;8.80;;;4.43;;
72379;SDS011;60354;47.798;12.472;2023-02-28T06:14:24;9.93;;;4.07;;
72379;SDS011;60354;47.798;12.472;2023-02-28T06:16:49;10.63;;;4.68;;
72379;SDS011;60354;47.798;12.472;2023-02-28T06:19:15;17.45;;;6.82;;
72379;SDS011;60354;47.798;12.472;2023-02-28T06:21:41;17.50;;;8.32;;
72379;SDS011;60354;47.798;12.472;2023-02-28T06:24:07;20.13;;;8.23;;
72379;SDS011;60354;47.798;12.472;2023-02-28T06:26:33;21.35;;;9.80;;
72379;SDS011;60354;47.798;12.472;2023-02-28T06:28:58;25.30;;;11.48;;
72379;SDS011;60354;47.798;12.472;2023-02-28T06:31:26;19.33;;;8.80;;
72379;SDS011;60354;47.798;12.472;2023-02-28T06:33:53;16.02;;;7.28;;
72379;SDS011;60354;47.798;12.472;2023-02-28T06:36:20;15.63;;;7.32;;
72379;SDS011;60354;47.798;12.472;2023-02-28T06:38:45;14.23;;;7.00;;
72379;SDS011;60354;47.798;12.472;2023-02-28T06:41:13;17.73;;;8.23;;
72379;SDS011;60354;47.798;12.472;2023-02-28T06:43:40;17.95;;;7.50;;
72379;SDS011;60354;47.798;12.472;2023-02-28T06:46:07;15.20;;;8.80;;
72379;SDS011;60354;47.798;12.472;2023-02-28T06:48:35;15.52;;;8.27;;
72379;SDS011;60354;47.798;12.472;2023-02-28T06:51:01;30.80;;;13.00;;
72379;SDS011;60354;47.798;12.472;2023-02-28T06:53:28;53.97;;;20.92;;
72379;SDS011;60354;47.798;12.472;2023-02-28T06:55:54;30.80;;;14.23;;
72379;SDS011;60354;47.798;12.472;2023-02-28T06:58:19;26.33;;;12.80;;
72379;SDS011;60354;47.798;12.472;2023-02-28T07:00:45;28.08;;;13.10;;
72379;SDS011;60354;47.798;12.472;2023-02-28T07:03:12;27.58;;;12.60;;
72379;SDS011;60354;47.798;12.472;2023-02-28T07:05:40;28.48;;;12.85;;
72379;SDS011;60354;47.798;12.472;2023-02-28T07:08:06;30.25;;;14.25;;
72379;SDS011;60354;47.798;12.472;2023-02-28T07:10:36;25.65;;;12.93;;
72379;SDS011;60354;47.798;12.472;2023-02-28T07:13:03;25.30;;;13.30;;
72379;SDS011;60354;47.798;12.472;2023-02-28T07:15:30;35.70;;;13.93;;
72379;SDS011;60354;47.798;12.472;2023-02-28T07:17:55;64.57;;;21.52;;
72379;SDS011;60354;47.798;12.472;2023-02-28T07:20:21;33.25;;;13.20;;
72379;SDS011;60354;47.798;12.472;2023-02-28T07:22:48;18.17;;;9.27;;
72379;SDS011;60354;47.798;12.472;2023-02-28T07:25:20;14.52;;;7.40;;
72379;SDS011;60354;47.798;12.472;2023-02-28T07:27:46;13.75;;;7.07;;
72379;SDS011;60354;47.798;12.472;2023-02-28T07:30:12;14.25;;;6.60;;
72379;SDS011;60354;47.798;12.472;2023-02-28T07:32:38;16.63;;;8.75;;
72379;SDS011;60354;47.798;12.472;2023-02-28T07:35:03;24.80;;;11.65;;
72379;SDS011;60354;47.798;12.472;2023-02-28T07:37:29;19.45;;;9.68;;
72379;SDS011;60354;47.798;12.472;2023-02-28T07:39:56;17.25;;;9.02;;
72379;SDS011;60354;47.798;12.472;2023-02-28T07:42:22;17.20;;;9.23;;
72379;SDS011;60354;47.798;12.472;2023-02-28T07:44:50;18.67;;;9.75;;
72379;SDS011;60354;47.798;12.472;2023-02-28T07:47:16;21.55;;;8.93;;
72379;SDS011;60354;47.798;12.472;2023-02-28T07:49:42;16.33;;;8.38;;
72379;SDS011;60354;47.798;12.472;2023-02-28T07:52:07;16.67;;;8.45;;
72379;SDS011;60354;47.798;12.472;2023-02-28T07:54:33;15.57;;;8.40;;
72379;SDS011;60354;47.798;12.472;2023-02-28T07:56:59;29.45;;;11.48;;
72379;SDS011;60354;47.798;12.472;2023-02-28T07:59:24;25.45;;;11.50;;
72379;SDS011;60354;47.798;12.472;2023-02-28T08:01:50;19.65;;;8.23;;
72379;SDS011;60354;47.798;12.472;2023-02-28T08:04:16;20.85;;;7.32;;
72379;SDS011;60354;47.798;12.472;2023-02-28T08:06:43;9.73;;;5.55;;
72379;SDS011;60354;47.798;12.472;2023-02-28T08:09:08;10.95;;;5.07;;
72379;SDS011;60354;47.798;12.472;2023-02-28T08:11:34;9.20;;;5.60;;
72379;SDS011;60354;47.798;12.472;2023-02-28T08:13:59;8.27;;;5.10;;
72379;SDS011;60354;47.798;12.472;2023-02-28T08:16:25;14.25;;;6.97;;
72379;SDS011;60354;47.798;12.472;2023-02-28T08:18:51;7.78;;;4.95;;
72379;SDS011;60354;47.798;12.472;2023-02-28T08:21:17;9.85;;;4.95;;
72379;SDS011;60354;47.798;12.472;2023-02-28T08:23:43;9.00;;;5.03;;
72379;SDS011;60354;47.798;12.472;2023-02-28T08:26:09;7.68;;;5.15;;
72379;SDS011;60354;47.798;12.472;2023-02-28T08:28:34;8.20;;;4.45;;
72379;SDS011;60354;47.798;12.472;2023-02-28T08:31:00;10.80;;;5.47;;
72379;SDS011;60354;47.798;12.472;2023-02-28T08:33:26;6.50;;;3.72;;
72379;SDS011;60354;47.798;12.472;2023-02-28T08:35:55;6.93;;;4.13;;
72379;SDS011;60354;47.798;12.472;2023-02-28T08:38:21;6.57;;;4.05;;
72379;SDS011;60354;47.798;12.472;2023-02-28T08:40:48;11.18;;;5.00;;
72379;SDS011;60354;47.798;12.472;2023-02-28T08:43:13;7.75;;;4.60;;
72379;SDS011;60354;47.798;12.472;2023-02-28T08:45:39;8.43;;;4.95;;
72379;SDS011;60354;47.798;12.472;2023-02-28T08:48:04;10.48;;;5.90;;
72379;SDS011;60354;47.798;12.472;2023-02-28T08:50:30;10.80;;;5.97;;
72379;SDS011;60354;47.798;12.472;2023-02-28T08:52:55;10.40;;;5.93;;
72379;SDS011;60354;47.798;12.472;2023-02-28T08:55:21;8.68;;;5.03;;
72379;SDS011;60354;47.798;12.472;2023-02-28T08:57:47;6.18;;;4.22;;
72379;SDS011;60354;47.798;12.472;2023-02-28T09:00:13;6.38;;;4.25;;
72379;SDS011;60354;47.798;12.472;2023-02-28T09:02:39;9.70;;;4.65;;
72379;SDS011;60354;47.798;12.472;2023-02-28T09:05:05;7.60;;;4.68;;
72379;SDS011;60354;47.798;12.472;2023-02-28T09:07:31;8.02;;;5.05;;
72379;SDS011;60354;47.798;12.472;2023-02-28T09:09:57;7.60;;;4.63;;
72379;SDS011;60354;47.798;12.472;2023-02-28T09:12:26;9.10;;;5.03;;
72379;SDS011;60354;47.798;12.472;2023-02-28T09:14:53;9.32;;;5.38;;
72379;SDS011;60354;47.798;12.472;2023-02-28T09:17:18;9.23;;;5.10;;
72379;SDS011;60354;47.798;12.472;2023-02-28T09:19:44;10.55;;;5.78;;
72379;SDS011;60354;47.798;12.472;2023-02-28T09:22:10;14.13;;;6.20;;
72379;SDS011;60354;47.798;12.472;2023-02-28T09:24:36;9.57;;;5.93;;
72379;SDS011;60354;47.798;12.472;2023-02-28T09:27:02;11.55;;;6.38;;
72379;SDS011;60354;47.798;12.472;2023-02-28T09:29:31;9.98;;;6.03;;
72379;SDS011;60354;47.798;12.472;2023-02-28T09:31:58;13.65;;;7.40;;
72379;SDS011;60354;47.798;12.472;2023-02-28T09:34:24;14.02;;;8.30;;
72379;SDS011;60354;47.798;12.472;2023-02-28T09:36:50;11.82;;;7.78;;
72379;SDS011;60354;47.798;12.472;2023-02-28T09:39:20;12.13;;;7.43;;
72379;SDS011;60354;47.798;12.472;2023-02-28T09:41:47;15.73;;;8.23;;
72379;SDS011;60354;47.798;12.472;2023-02-28T09:44:26;12.98;;;7.70;;
72379;SDS011;60354;47.798;12.472;2023-02-28T09:47:39;16.90;;;7.95;;
72379;SDS011;60354;47.798;12.472;2023-02-28T09:49:46;12.40;;;7.30;;
72379;SDS011;60354;47.798;12.472;2023-02-28T09:52:14;13.63;;;7.85;;
72379;SDS011;60354;47.798;12.472;2023-02-28T09:54:44;13.98;;;8.05;;
72379;SDS011;60354;47.798;12.472;2023-02-28T10:05:16;16.92;;;9.63;;
72379;SDS011;60354;47.798;12.472;2023-02-28T10:10:52;18.08;;;10.43;;
72379;SDS011;60354;47.798;12.472;2023-02-28T10:15:55;18.50;;;9.68;;
72379;SDS011;60354;47.798;12.472;2023-02-28T10:18:25;20.83;;;10.80;;
72379;SDS011;60354;47.798;12.472;2023-02-28T10:21:00;19.60;;;10.93;;
72379;SDS011;60354;47.798;12.472;2023-02-28T10:23:28;19.95;;;11.05;;
72379;SDS011;60354;47.798;12.472;2023-02-28T10:25:59;19.27;;;10.80;;
72379;SDS011;60354;47.798;12.472;2023-02-28T10:28:26;20.55;;;11.43;;
72379;SDS011;60354;47.798;12.472;2023-02-28T10:30:55;17.23;;;10.18;;
72379;SDS011;60354;47.798;12.472;2023-02-28T10:33:35;18.55;;;10.50;;
72379;SDS011;60354;47.798;12.472;2023-02-28T10:36:01;17.38;;;9.95;;
72379;SDS011;60354;47.798;12.472;2023-02-28T10:38:31;16.00;;;9.73;;
72379;SDS011;60354;47.798;12.472;2023-02-28T10:43:39;18.23;;;10.40;;
72379;SDS011;60354;47.798;12.472;2023-02-28T10:48:42;16.92;;;10.30;;
72379;SDS011;60354;47.798;12.472;2023-02-28T10:51:14;19.73;;;11.40;;
72379;SDS011;60354;47.798;12.472;2023-02-28T10:53:48;21.42;;;11.63;;
72379;SDS011;60354;47.798;12.472;2023-02-28T11:01:23;18.73;;;11.55;;
72379;SDS011;60354;47.798;12.472;2023-02-28T11:04:02;19.92;;;11.07;;
72379;SDS011;60354;47.798;12.472;2023-02-28T11:11:28;20.05;;;10.77;;
72379;SDS011;60354;47.798;12.472;2023-02-28T11:13:57;20.02;;;11.75;;
72379;SDS011;60354;47.798;12.472;2023-02-28T11:16:33;19.23;;;11.30;;
72379;SDS011;60354;47.798;12.472;2023-02-28T11:19:02;18.83;;;11.93;;
72379;SDS011;60354;47.798;12.472;2023-02-28T11:21:33;22.50;;;12.85;;
72379;SDS011;60354;47.798;12.472;2023-02-28T11:24:12;20.80;;;12.20;;
72379;SDS011;60354;47.798;12.472;2023-02-28T11:26:54;27.23;;;12.55;;
72379;SDS011;60354;47.798;12.472;2023-02-28T11:29:32;23.15;;;12.90;;
72379;SDS011;60354;47.798;12.472;2023-02-28T11:37:13;18.73;;;11.10;;
72379;SDS011;60354;47.798;12.472;2023-02-28T11:39:44;18.55;;;10.38;;
72379;SDS011;60354;47.798;12.472;2023-02-28T11:42:23;18.35;;;10.23;;
72379;SDS011;60354;47.798;12.472;2023-02-28T11:48:10;18.63;;;11.07;;
72379;SDS011;60354;47.798;12.472;2023-02-28T12:04:41;21.27;;;12.57;;
72379;SDS011;60354;47.798;12.472;2023-02-28T12:26:43;15.75;;;9.88;;
72379;SDS011;60354;47.798;12.472;2023-02-28T12:29:19;16.48;;;10.05;;
72379;SDS011;60354;47.798;12.472;2023-02-28T12:32:05;17.13;;;9.80;;
72379;SDS011;60354;47.798;12.472;2023-02-28T12:34:39;17.10;;;10.82;;
72379;SDS011;60354;47.798;12.472;2023-02-28T12:37:44;20.63;;;11.85;;
72379;SDS011;60354;47.798;12.472;2023-02-28T12:40:06;20.42;;;12.27;;
72379;SDS011;60354;47.798;12.472;2023-02-28T12:42:42;18.65;;;11.40;;
72379;SDS011;60354;47.798;12.472;2023-02-28T12:45:31;18.85;;;11.25;;
72379;SDS011;60354;47.798;12.472;2023-02-28T12:48:05;19.10;;;11.27;;
72379;SDS011;60354;47.798;12.472;2023-02-28T12:50:33;21.10;;;11.38;;
72379;SDS011;60354;47.798;12.472;2023-02-28T12:55:32;21.13;;;11.57;;
72379;SDS011;60354;47.798;12.472;2023-02-28T13:09:17;21.13;;;11.10;;
72379;SDS011;60354;47.798;12.472;2023-02-28T13:11:46;20.50;;;11.38;;
72379;SDS011;60354;47.798;12.472;2023-02-28T13:14:16;16.95;;;10.55;;
72379;SDS011;60354;47.798;12.472;2023-02-28T13:19:28;21.27;;;12.05;;
72379;SDS011;60354;47.798;12.472;2023-02-28T13:21:55;17.40;;;11.32;;
72379;SDS011;60354;47.798;12.472;2023-02-28T13:24:41;20.67;;;12.02;;
72379;SDS011;60354;47.798;12.472;2023-02-28T13:27:20;26.35;;;15.40;;
72379;SDS011;60354;47.798;12.472;2023-02-28T13:29:49;19.70;;;12.20;;
72379;SDS011;60354;47.798;12.472;2023-02-28T13:58:07;25.92;;;13.50;;
72379;SDS011;60354;47.798;12.472;2023-02-28T14:06:09;22.17;;;12.55;;
72379;SDS011;60354;47.798;12.472;2023-02-28T14:08:51;19.58;;;10.93;;
72379;SDS011;60354;47.798;12.472;2023-02-28T14:11:28;18.65;;;11.40;;
72379;SDS011;60354;47.798;12.472;2023-02-28T14:13:56;17.42;;;10.40;;
72379;SDS011;60354;47.798;12.472;2023-02-28T14:16:26;16.95;;;11.18;;
72379;SDS011;60354;47.798;12.472;2023-02-28T14:21:48;18.17;;;11.55;;
72379;SDS011;60354;47.798;12.472;2023-02-28T14:27:26;21.33;;;10.65;;
72379;SDS011;60354;47.798;12.472;2023-02-28T14:38:45;19.60;;;9.82;;
72379;SDS011;60354;47.798;12.472;2023-02-28T14:44:00;17.83;;;10.35;;
72379;SDS011;60354;47.798;12.472;2023-02-28T14:46:35;15.88;;;9.45;;
72379;SDS011;60354;47.798;12.472;2023-02-28T14:49:06;18.20;;;10.35;;
72379;SDS011;60354;47.798;12.472;2023-02-28T14:51:37;29.48;;;18.05;;
72379;SDS011;60354;47.798;12.472;2023-02-28T14:54:03;30.40;;;16.33;;
72379;SDS011;60354;47.798;12.472;2023-02-28T14:56:34;54.58;;;26.65;;
72379;SDS011;60354;47.798;12.472;2023-02-28T14:59:02;70.43;;;31.35;;
72379;SDS011;60354;47.798;12.472;2023-02-28T15:01:28;34.33;;;16.92;;
72379;SDS011;60354;47.798;12.472;2023-02-28T15:04:03;27.33;;;15.32;;
72379;SDS011;60354;47.798;12.472;2023-02-28T15:06:30;28.58;;;16.13;;
72379;SDS011;60354;47.798;12.472;2023-02-28T15:09:06;22.38;;;12.07;;
72379;SDS011;60354;47.798;12.472;2023-02-28T15:11:39;29.38;;;15.52;;
72379;SDS011;60354;47.798;12.472;2023-02-28T15:14:05;24.80;;;15.13;;
72379;SDS011;60354;47.798;12.472;2023-02-28T15:16:32;19.98;;;12.18;;
72379;SDS011;60354;47.798;12.472;2023-02-28T15:19:08;19.65;;;11.88;;
72379;SDS011;60354;47.798;12.472;2023-02-28T15:21:50;19.92;;;11.88;;
72379;SDS011;60354;47.798;12.472;2023-02-28T15:24:39;19.75;;;11.45;;
72379;SDS011;60354;47.798;12.472;2023-02-28T15:27:10;21.73;;;12.15;;
72379;SDS011;60354;47.798;12.472;2023-02-28T15:29:48;18.98;;;12.02;;
72379;SDS011;60354;47.798;12.472;2023-02-28T15:34:55;21.83;;;13.40;;
72379;SDS011;60354;47.798;12.472;2023-02-28T15:43:12;57.55;;;28.30;;
72379;SDS011;60354;47.798;12.472;2023-02-28T15:48:13;21.73;;;12.85;;
72379;SDS011;60354;47.798;12.472;2023-02-28T15:50:42;24.35;;;13.98;;
72379;SDS011;60354;47.798;12.472;2023-02-28T15:53:12;24.75;;;15.60;;
72379;SDS011;60354;47.798;12.472;2023-02-28T15:55:39;19.23;;;11.88;;
72379;SDS011;60354;47.798;12.472;2023-02-28T15:58:08;21.42;;;13.23;;
72379;SDS011;60354;47.798;12.472;2023-02-28T16:00:38;21.15;;;12.52;;
72379;SDS011;60354;47.798;12.472;2023-02-28T16:03:25;20.45;;;11.80;;
72379;SDS011;60354;47.798;12.472;2023-02-28T16:06:19;20.67;;;12.52;;
72379;SDS011;60354;47.798;12.472;2023-02-28T16:08:47;20.00;;;12.25;;
72379;SDS011;60354;47.798;12.472;2023-02-28T16:11:14;20.73;;;12.43;;
72379;SDS011;60354;47.798;12.472;2023-02-28T16:13:40;22.80;;;12.77;;
72379;SDS011;60354;47.798;12.472;2023-02-28T16:16:05;36.30;;;18.55;;
72379;SDS011;60354;47.798;12.472;2023-02-28T16:18:31;28.30;;;15.73;;
72379;SDS011;60354;47.798;12.472;2023-02-28T16:20:56;34.75;;;18.45;;
72379;SDS011;60354;47.798;12.472;2023-02-28T16:23:22;27.98;;;15.07;;
72379;SDS011;60354;47.798;12.472;2023-02-28T16:25:47;27.25;;;16.15;;
72379;SDS011;60354;47.798;12.472;2023-02-28T16:28:21;24.25;;;14.50;;
72379;SDS011;60354;47.798;12.472;2023-02-28T16:30:50;25.52;;;13.68;;
72379;SDS011;60354;47.798;12.472;2023-02-28T16:33:17;23.15;;;11.90;;
72379;SDS011;60354;47.798;12.472;2023-02-28T16:35:42;26.77;;;15.80;;
72379;SDS011;60354;47.798;12.472;2023-02-28T16:38:07;19.67;;;12.50;;
72379;SDS011;60354;47.798;12.472;2023-02-28T16:40:34;18.48;;;11.18;;
72379;SDS011;60354;47.798;12.472;2023-02-28T16:43:00;19.65;;;11.07;;
72379;SDS011;60354;47.798;12.472;2023-02-28T16:45:32;18.92;;;11.13;;
72379;SDS011;60354;47.798;12.472;2023-02-28T16:47:58;17.40;;;10.52;;
72379;SDS011;60354;47.798;12.472;2023-02-28T16:50:28;18.45;;;10.73;;
72379;SDS011;60354;47.798;12.472;2023-02-28T16:52:55;20.52;;;12.13;;
72379;SDS011;60354;47.798;12.472;2023-02-28T16:55:24;47.38;;;23.75;;
72379;SDS011;60354;47.798;12.472;2023-02-28T16:57:52;36.25;;;19.60;;
72379;SDS011;60354;47.798;12.472;2023-02-28T17:00:19;35.53;;;19.17;;
72379;SDS011;60354;47.798;12.472;2023-02-28T17:02:45;37.13;;;19.55;;
72379;SDS011;60354;47.798;12.472;2023-02-28T17:05:11;33.60;;;18.85;;
72379;SDS011;60354;47.798;12.472;2023-02-28T17:07:37;35.80;;;19.27;;
72379;SDS011;60354;47.798;12.472;2023-02-28T17:10:10;34.40;;;19.02;;
72379;SDS011;60354;47.798;12.472;2023-02-28T17:12:38;39.40;;;20.55;;
72379;SDS011;60354;47.798;12.472;2023-02-28T17:15:04;27.00;;;16.08;;
72379;SDS011;60354;47.798;12.472;2023-02-28T17:17:31;26.48;;;13.85;;
72379;SDS011;60354;47.798;12.472;2023-02-28T17:19:57;29.10;;;16.13;;
72379;SDS011;60354;47.798;12.472;2023-02-28T17:22:23;32.20;;;16.67;;
72379;SDS011;60354;47.798;12.472;2023-02-28T17:24:51;28.10;;;17.27;;
72379;SDS011;60354;47.798;12.472;2023-02-28T17:27:20;31.88;;;17.27;;
72379;SDS011;60354;47.798;12.472;2023-02-28T17:29:46;37.92;;;19.67;;
72379;SDS011;60354;47.798;12.472;2023-02-28T17:32:12;27.50;;;17.10;;
72379;SDS011;60354;47.798;12.472;2023-02-28T17:34:37;25.73;;;14.13;;
72379;SDS011;60354;47.798;12.472;2023-02-28T17:37:03;27.48;;;15.15;;
72379;SDS011;60354;47.798;12.472;2023-02-28T17:39:29;27.92;;;16.08;;
72379;SDS011;60354;47.798;12.472;2023-02-28T17:41:55;30.20;;;16.25;;